Time,TemperatureF,DewpointF,PressureIn,WindDirection,WindDirectionDegrees,WindSpeedMPH,WindSpeedGustMPH,Humidity,HourlyPrecipIn,Conditions,Clouds,dailyrainin,SoftwareType,DateUTC
2012-03-23 00:12:00,43.3,34.0,29.93,NNE,25,1.0,2.0,69,0.00,,,0.00,weatherlink.com 1.10,2012-03-23 07:12:00,
2012-03-23 00:27:00,42.9,33.0,29.93,NNE,31,2.0,2.0,67,0.00,,,0.00,weatherlink.com 1.10,2012-03-23 07:27:00,
2012-03-23 00:42:00,44.5,32.0,29.92,North,6,2.0,3.0,63,0.00,,,0.00,weatherlink.com 1.10,2012-03-23 07:42:00,
2012-03-23 00:57:00,42.9,33.0,29.92,NNE,29,0.0,1.0,67,0.00,,,0.00,weatherlink.com 1.10,2012-03-23 07:57:00,
2012-03-23 01:12:00,44.3,32.0,29.92,NNE,28,1.0,2.0,62,0.00,,,0.00,weatherlink.com 1.10,2012-03-23 08:12:00,
2012-03-23 01:27:00,42.6,31.0,29.92,NNE,20,1.0,2.0,64,0.00,,,0.00,weatherlink.com 1.10,2012-03-23 08:27:00,
2012-03-23 01:42:00,40.2,31.0,29.92,NNE,15,2.0,2.0,70,0.00,,,0.00,weatherlink.com 1.10,2012-03-23 08:42:00,
2012-03-23 01:57:00,40.7,33.0,29.93,North,11,3.0,4.0,74,0.00,,,0.00,weatherlink.com 1.10,2012-03-23 08:57:00,
2012-03-23 02:12:00,42.5,33.0,29.92,NNE,22,3.0,4.0,69,0.00,,,0.00,weatherlink.com 1.10,2012-03-23 09:12:00,
2012-03-23 02:27:00,43.3,31.0,29.92,NNE,30,3.0,4.0,63,0.00,,,0.00,weatherlink.com 1.10,2012-03-23 09:27:00,
2012-03-23 02:42:00,42.7,31.0,29.93,NNE,16,3.0,4.0,64,0.00,,,0.00,weatherlink.com 1.10,2012-03-23 09:42:00,
2012-03-23 04:28:00,42.5,32.0,29.92,NNE,18,3.0,4.0,66,0.00,,,0.00,weatherlink.com 1.10,2012-03-23 11:28:00,
2012-03-23 04:58:00,40.9,33.0,29.92,NNE,20,3.0,3.0,74,0.00,,,0.00,weatherlink.com 1.10,2012-03-23 11:58:00,
2012-03-23 05:13:00,40.6,34.0,29.93,NNE,12,0.0,3.0,76,0.00,,,0.00,weatherlink.com 1.10,2012-03-23 12:13:00,
2012-03-23 05:28:00,40.4,34.0,29.93,North,357,2.0,3.0,78,0.00,,,0.00,weatherlink.com 1.10,2012-03-23 12:28:00,
2012-03-23 05:43:00,43.7,34.0,29.93,NNE,13,2.0,3.0,70,0.00,,,0.00,weatherlink.com 1.10,2012-03-23 12:43:00,
2012-03-23 05:58:00,44.5,34.0,29.93,North,6,2.0,3.0,67,0.00,,,0.00,weatherlink.com 1.10,2012-03-23 12:58:00,
2012-03-23 06:13:00,43.0,33.0,29.93,NNE,27,2.0,3.0,68,0.00,,,0.00,weatherlink.com 1.10,2012-03-23 13:13:00,
2012-03-23 06:28:00,43.5,32.0,29.93,NNE,18,2.0,3.0,65,0.00,,,0.00,weatherlink.com 1.10,2012-03-23 13:28:00,
2012-03-23 06:43:00,43.0,32.0,29.93,NNE,20,4.0,4.0,65,0.00,,,0.00,weatherlink.com 1.10,2012-03-23 13:43:00,
2012-03-23 06:58:00,44.4,32.0,29.93,NNE,22,3.0,4.0,61,0.00,,,0.00,weatherlink.com 1.10,2012-03-23 13:58:00,
2012-03-23 07:13:00,44.4,31.0,29.94,NNE,14,2.0,4.0,60,0.00,,,0.00,weatherlink.com 1.10,2012-03-23 14:13:00,
2012-03-23 07:28:00,44.4,32.0,29.95,NNE,19,3.0,5.0,62,0.00,,,0.00,weatherlink.com 1.10,2012-03-23 14:28:00,
2012-03-23 07:43:00,46.3,32.0,29.95,NNE,18,2.0,4.0,58,0.00,,,0.00,weatherlink.com 1.10,2012-03-23 14:43:00,
2012-03-23 07:58:00,48.8,33.0,29.96,NNE,20,3.0,4.0,54,0.00,,,0.00,weatherlink.com 1.10,2012-03-23 14:58:00,
2012-03-23 08:13:00,51.0,33.0,29.96,NNE,29,0.0,3.0,50,0.00,,,0.00,weatherlink.com 1.10,2012-03-23 15:13:00,
2012-03-23 08:28:00,51.6,35.0,29.96,SSW,203,0.0,3.0,53,0.00,,,0.00,weatherlink.com 1.10,2012-03-23 15:28:00,
2012-03-23 08:43:00,50.5,36.0,29.97,SW,214,0.0,2.0,59,0.00,,,0.00,weatherlink.com 1.10,2012-03-23 15:43:00,
2012-03-23 08:58:00,50.4,37.0,29.98,SSW,210,1.0,4.0,60,0.00,,,0.00,weatherlink.com 1.10,2012-03-23 15:58:00,
2012-03-23 09:13:00,50.4,35.0,29.98,SSW,204,0.0,2.0,57,0.00,,,0.00,weatherlink.com 1.10,2012-03-23 16:13:00,
2012-03-23 09:28:00,50.5,35.0,29.98,South,180,0.0,2.0,56,0.00,,,0.00,weatherlink.com 1.10,2012-03-23 16:28:00,
2012-03-23 09:43:00,50.6,37.0,29.99,SSW,208,1.0,3.0,59,0.00,,,0.00,weatherlink.com 1.10,2012-03-23 16:43:00,
2012-03-23 09:58:00,50.6,36.0,29.99,SSW,211,0.0,2.0,58,0.00,,,0.00,weatherlink.com 1.10,2012-03-23 16:58:00,
2012-03-23 10:13:00,51.3,36.0,29.99,SSW,211,1.0,2.0,56,0.00,,,0.00,weatherlink.com 1.10,2012-03-23 17:13:00,
2012-03-23 10:29:00,52.1,37.0,29.99,SSW,211,0.0,5.0,57,0.00,,,0.00,weatherlink.com 1.10,2012-03-23 17:29:00,
2012-03-23 10:44:00,52.9,38.0,29.99,South,175,1.0,4.0,57,0.00,,,0.00,weatherlink.com 1.10,2012-03-23 17:44:00,
2012-03-23 10:59:00,53.5,39.0,29.99,East,99,0.0,4.0,58,0.00,,,0.00,weatherlink.com 1.10,2012-03-23 17:59:00,
2012-03-23 11:14:00,53.5,39.0,30.00,ESE,121,3.0,7.0,58,0.00,,,0.00,weatherlink.com 1.10,2012-03-23 18:14:00,
2012-03-23 11:29:00,53.9,37.0,30.00,SSW,212,0.0,5.0,54,0.00,,,0.00,weatherlink.com 1.10,2012-03-23 18:29:00,
2012-03-23 11:44:00,55.7,38.0,30.00,SSW,212,0.0,6.0,51,0.00,,,0.00,weatherlink.com 1.10,2012-03-23 18:44:00,
2012-03-23 11:59:00,55.6,38.0,29.99,SSW,208,0.0,7.0,51,0.00,,,0.00,weatherlink.com 1.10,2012-03-23 18:59:00,
2012-03-23 12:14:00,56.3,40.0,30.00,SW,226,0.0,7.0,54,0.00,,,0.00,weatherlink.com 1.10,2012-03-23 19:14:00,
2012-03-23 12:29:00,56.8,40.0,30.00,WSW,253,1.0,6.0,54,0.00,,,0.00,weatherlink.com 1.10,2012-03-23 19:29:00,
2012-03-23 12:44:00,58.5,40.0,29.99,SSW,208,3.0,6.0,51,0.00,,,0.00,weatherlink.com 1.10,2012-03-23 19:44:00,
2012-03-23 12:59:00,58.7,40.0,29.99,ESE,120,0.0,7.0,51,0.00,,,0.00,weatherlink.com 1.10,2012-03-23 19:59:00,
2012-03-23 13:14:00,59.3,39.0,29.98,WNW,283,1.0,5.0,48,0.00,,,0.00,weatherlink.com 1.10,2012-03-23 20:14:00,
2012-03-23 13:29:00,59.9,42.0,29.98,SSW,208,1.0,5.0,52,0.00,,,0.00,weatherlink.com 1.10,2012-03-23 20:29:00,
2012-03-23 13:44:00,61.2,40.0,29.98,SW,215,5.0,5.0,45,0.00,,,0.00,weatherlink.com 1.10,2012-03-23 20:44:00,
2012-03-23 13:59:00,61.7,34.0,29.97,SW,217,0.0,7.0,36,0.00,,,0.00,weatherlink.com 1.10,2012-03-23 20:59:00,
2012-03-23 14:14:00,62.4,37.0,29.97,SW,217,2.0,6.0,39,0.00,,,0.00,weatherlink.com 1.10,2012-03-23 21:14:00,
2012-03-23 14:29:00,62.9,38.0,29.97,SSW,211,2.0,6.0,40,0.00,,,0.00,weatherlink.com 1.10,2012-03-23 21:29:00,
2012-03-23 14:44:00,61.7,36.0,29.97,SSW,210,6.0,7.0,38,0.00,,,0.00,weatherlink.com 1.10,2012-03-23 21:44:00,
2012-03-23 14:59:00,61.6,40.0,29.97,NW,305,1.0,7.0,45,0.00,,,0.00,weatherlink.com 1.10,2012-03-23 21:59:00,
2012-03-23 15:14:00,61.6,39.0,29.96,WSW,248,0.0,4.0,44,0.00,,,0.00,weatherlink.com 1.10,2012-03-23 22:14:00,
2012-03-23 15:29:00,61.8,37.0,29.96,SSW,207,5.0,7.0,40,0.00,,,0.00,weatherlink.com 1.10,2012-03-23 22:29:00,
2012-03-23 15:44:00,60.6,35.0,29.96,SW,231,3.0,6.0,39,0.00,,,0.00,weatherlink.com 1.10,2012-03-23 22:44:00,
2012-03-23 15:59:00,59.7,36.0,29.97,WNW,285,2.0,5.0,42,0.00,,,0.00,weatherlink.com 1.10,2012-03-23 22:59:00,
2012-03-23 16:14:00,59.5,35.0,29.96,WSW,240,0.0,3.0,40,0.00,,,0.00,weatherlink.com 1.10,2012-03-23 23:14:00,
2012-03-23 16:29:00,59.7,34.0,29.96,WSW,245,1.0,4.0,39,0.00,,,0.00,weatherlink.com 1.10,2012-03-23 23:29:00,
2012-03-23 16:44:00,59.5,35.0,29.96,SW,233,0.0,3.0,40,0.00,,,0.00,weatherlink.com 1.10,2012-03-23 23:44:00,
2012-03-23 16:59:00,59.6,36.0,29.96,SSW,212,1.0,2.0,41,0.00,,,0.00,weatherlink.com 1.10,2012-03-23 23:59:00,
2012-03-23 17:14:00,57.1,35.0,29.97,WSW,255,1.0,3.0,43,0.00,,,0.00,weatherlink.com 1.10,2012-03-24 00:14:00,
2012-03-23 17:29:00,55.8,34.0,29.97,SW,232,1.0,3.0,44,0.00,,,0.00,weatherlink.com 1.10,2012-03-24 00:29:00,
2012-03-23 17:44:00,54.9,32.0,29.97,SW,221,0.0,2.0,42,0.00,,,0.00,weatherlink.com 1.10,2012-03-24 00:44:00,
2012-03-23 17:59:00,54.7,32.0,29.97,SW,217,0.0,2.0,43,0.00,,,0.00,weatherlink.com 1.10,2012-03-24 00:59:00,
2012-03-23 18:14:00,54.2,32.0,29.97,SW,215,0.0,1.0,43,0.00,,,0.00,weatherlink.com 1.10,2012-03-24 01:14:00,
2012-03-23 18:44:00,52.6,33.0,29.97,SSW,210,0.0,1.0,47,0.00,,,0.00,weatherlink.com 1.10,2012-03-24 01:44:00,
2012-03-23 18:59:00,50.9,37.0,29.97,SSW,210,0.0,0.0,60,0.00,,,0.00,weatherlink.com 1.10,2012-03-24 01:59:00,
2012-03-23 19:14:00,48.3,35.0,29.97,North,8,0.0,1.0,61,0.00,,,0.00,weatherlink.com 1.10,2012-03-24 02:14:00,
2012-03-23 19:29:00,47.6,36.0,29.97,NE,44,1.0,1.0,64,0.00,,,0.00,weatherlink.com 1.10,2012-03-24 02:29:00,
2012-03-23 19:44:00,45.5,34.0,29.98,NNE,23,2.0,2.0,64,0.00,,,0.00,weatherlink.com 1.10,2012-03-24 02:44:00,
2012-03-23 19:59:00,43.7,33.0,29.98,NNE,15,1.0,2.0,67,0.00,,,0.00,weatherlink.com 1.10,2012-03-24 02:59:00,
2012-03-23 20:14:00,42.5,34.0,29.98,NNE,33,2.0,3.0,71,0.00,,,0.00,weatherlink.com 1.10,2012-03-24 03:14:00,
2012-03-23 20:29:00,41.6,30.0,29.98,NNE,22,1.0,1.0,63,0.00,,,0.00,weatherlink.com 1.10,2012-03-24 03:29:00,
2012-03-23 20:44:00,41.1,28.0,29.99,NNE,25,0.0,2.0,60,0.00,,,0.00,weatherlink.com 1.10,2012-03-24 03:44:00,
2012-03-23 20:59:00,40.9,27.0,29.99,NNE,33,2.0,2.0,57,0.00,,,0.00,weatherlink.com 1.10,2012-03-24 03:59:00,
2012-03-23 21:14:00,41.8,27.0,30.00,NNE,22,0.0,1.0,55,0.00,,,0.00,weatherlink.com 1.10,2012-03-24 04:14:00,
2012-03-23 21:29:00,42.7,25.0,30.01,North,353,0.0,2.0,50,0.00,,,0.00,weatherlink.com 1.10,2012-03-24 04:29:00,
2012-03-23 21:45:00,42.2,27.0,30.01,NNE,13,2.0,2.0,56,0.00,,,0.00,weatherlink.com 1.10,2012-03-24 04:45:00,
2012-03-23 22:00:00,43.1,25.0,30.01,NE,34,1.0,2.0,50,0.00,,,0.00,weatherlink.com 1.10,2012-03-24 05:00:00,
2012-03-23 22:15:00,44.4,22.0,30.01,NNE,12,1.0,3.0,42,0.00,,,0.00,weatherlink.com 1.10,2012-03-24 05:15:00,
2012-03-23 22:30:00,44.1,23.0,30.01,NNW,347,2.0,2.0,43,0.00,,,0.00,weatherlink.com 1.10,2012-03-24 05:30:00,
2012-03-23 22:45:00,43.9,24.0,30.02,NNE,18,2.0,3.0,45,0.00,,,0.00,weatherlink.com 1.10,2012-03-24 05:45:00,
2012-03-23 23:00:00,42.3,26.0,30.02,NNE,27,2.0,3.0,52,0.00,,,0.00,weatherlink.com 1.10,2012-03-24 06:00:00,
2012-03-23 23:15:00,41.7,26.0,30.02,NNE,27,2.0,3.0,55,0.00,,,0.00,weatherlink.com 1.10,2012-03-24 06:15:00,
2012-03-23 23:30:00,42.3,27.0,30.01,NNE,25,3.0,3.0,56,0.00,,,0.00,weatherlink.com 1.10,2012-03-24 06:30:00,
2012-03-23 23:45:00,43.1,28.0,30.01,NNE,15,2.0,4.0,55,0.00,,,0.00,weatherlink.com 1.10,2012-03-24 06:45:00,